Time;durP1;ratioP1;P1;durP2;ratioP2;P2;SDS_P1;SDS_P2;PMS_P1;PMS_P2;Temp;Humidity;BMP_temperature;BMP_pressure;BME280_temperature;BME280_humidity;BME280_pressure;Samples;Min_cycle;Max_cycle;Signal;HPM_P1;HPM_P2
2023/07/04 00:01:52;;;;;;;0.00;0.00;;;;;;;;;;5114805;28;20032;-80
2023/07/04 00:04:20;;;;;;;0.00;0.00;;;;;;;;;;5113916;28;20394;-80
2023/07/04 00:06:47;;;;;;;0.00;0.00;;;;;;;;;;5113457;28;20395;-80
2023/07/04 00:09:13;;;;;;;0.00;0.00;;;;;;;;;;5113831;28;20118;-80
2023/07/04 00:11:39;;;;;;;0.00;0.00;;;;;;;;;;5113538;28;20092;-80
2023/07/04 00:14:05;;;;;;;0.00;0.00;;;;;;;;;;5114877;28;20039;-80
2023/07/04 00:16:31;;;;;;;0.00;0.00;;;;;;;;;;5114596;28;20120;-80
2023/07/04 00:18:58;;;;;;;0.00;0.00;;;;;;;;;;5114743;28;20036;-80
2023/07/04 00:21:24;;;;;;;0.00;0.00;;;;;;;;;;5113226;28;20047;-80
2023/07/04 00:23:52;;;;;;;0.00;0.00;;;;;;;;;;5114829;28;20124;-80
2023/07/04 00:26:19;;;;;;;0.00;0.00;;;;;;;;;;5096313;28;20127;-80
2023/07/04 00:28:46;;;;;;;0.00;0.00;;;;;;;;;;5113572;28;20061;-80
2023/07/04 00:31:14;;;;;;;0.00;0.00;;;;;;;;;;5114093;28;20156;-80
2023/07/04 00:33:40;;;;;;;0.00;0.00;;;;;;;;;;5096446;28;20055;-80
2023/07/04 00:36:07;;;;;;;0.00;0.00;;;;;;;;;;5113118;28;20044;-80
2023/07/04 00:38:33;;;;;;;0.00;0.00;;;;;;;;;;5113258;28;20054;-80
2023/07/04 00:41:11;;;;;;;0.00;0.00;;;;;;;;;;5113195;28;20421;-82
2023/07/04 00:43:57;;;;;;;0.00;0.00;;;;;;;;;;5113054;28;20035;-80
2023/07/04 00:46:37;;;;;;;0.00;0.00;;;;;;;;;;5096134;28;20043;-80
2023/07/04 00:49:06;;;;;;;0.00;0.00;;;;;;;;;;5096274;28;20047;-80
2023/07/04 00:51:32;;;;;;;0.00;0.00;;;;;;;;;;5112690;28;20050;-79
2023/07/04 00:53:58;;;;;;;0.00;0.00;;;;;;;;;;5112893;28;20509;-80
2023/07/04 00:56:26;;;;;;;0.00;0.00;;;;;;;;;;5113695;28;20062;-80
2023/07/04 00:58:53;;;;;;;0.00;0.00;;;;;;;;;;5113198;28;20050;-80
2023/07/04 01:01:20;;;;;;;0.00;0.00;;;;;;;;;;5113732;28;20398;-80
2023/07/04 01:03:47;;;;;;;0.00;0.00;;;;;;;;;;5112604;28;20044;-80
2023/07/04 01:06:20;;;;;;;0.00;0.00;;;;;;;;;;5112498;28;20247;-80
2023/07/04 01:08:48;;;;;;;0.00;0.00;;;;;;;;;;5113118;28;20120;-81
2023/07/04 01:11:16;;;;;;;0.00;0.00;;;;;;;;;;5113706;28;20039;-80
2023/07/04 01:13:46;;;;;;;0.00;0.00;;;;;;;;;;5112640;28;20039;-80
2023/07/04 01:16:13;;;;;;;0.00;0.00;;;;;;;;;;5112460;28;20461;-80
2023/07/04 01:18:40;;;;;;;0.00;0.00;;;;;;;;;;5113872;28;20043;-80
2023/07/04 01:21:08;;;;;;;0.00;0.00;;;;;;;;;;5113893;28;20043;-80
2023/07/04 01:23:39;;;;;;;0.00;0.00;;;;;;;;;;5113569;28;20043;-80
2023/07/04 01:26:18;;;;;;;0.00;0.00;;;;;;;;;;5114025;28;20035;-80
2023/07/04 01:28:45;;;;;;;0.00;0.00;;;;;;;;;;5112848;28;20494;-80
2023/07/04 01:31:11;;;;;;;0.00;0.00;;;;;;;;;;5112167;28;20047;-80
2023/07/04 01:33:40;;;;;;;0.00;0.00;;;;;;;;;;5113547;28;20140;-80
2023/07/04 01:36:09;;;;;;;0.00;0.00;;;;;;;;;;5113367;28;20054;-80
2023/07/04 01:38:35;;;;;;;0.00;0.00;;;;;;;;;;5113123;28;20519;-80
2023/07/04 01:41:01;;;;;;;0.00;0.00;;;;;;;;;;5113301;28;20071;-80
2023/07/04 01:43:27;;;;;;;0.00;0.00;;;;;;;;;;5111984;28;20435;-80
2023/07/04 01:45:53;;;;;;;0.00;0.00;;;;;;;;;;5112010;28;20035;-80
2023/07/04 01:48:19;;;;;;;0.00;0.00;;;;;;;;;;5111747;28;20543;-80
2023/07/04 01:50:45;;;;;;;0.00;0.00;;;;;;;;;;5112056;28;20048;-80
2023/07/04 01:53:11;;;;;;;0.00;0.00;;;;;;;;;;5113050;28;20562;-80
2023/07/04 01:55:38;;;;;;;0.00;0.00;;;;;;;;;;5111811;28;20039;-80
2023/07/04 01:58:04;;;;;;;0.00;0.00;;;;;;;;;;5111322;28;20123;-79
2023/07/04 02:00:30;;;;;;;0.00;0.00;;;;;;;;;;5113074;28;20486;-81
2023/07/04 02:02:56;;;;;;;0.00;0.00;;;;;;;;;;5112633;28;20176;-80
2023/07/04 02:05:22;;;;;;;0.00;0.00;;;;;;;;;;5111673;28;20050;-80
2023/07/04 02:07:49;;;;;;;0.00;0.00;;;;;;;;;;5111509;28;20062;-80
2023/07/04 02:10:15;;;;;;;0.00;0.00;;;;;;;;;;5111170;28;20161;-80
2023/07/04 02:12:41;;;;;;;0.00;0.00;;;;;;;;;;5111332;28;20043;-80
2023/07/04 02:15:07;;;;;;;0.00;0.00;;;;;;;;;;5111866;28;20043;-80
2023/07/04 02:17:34;;;;;;;0.00;0.00;;;;;;;;;;5111006;28;20054;-80
2023/07/04 02:20:00;;;;;;;0.00;0.00;;;;;;;;;;5111557;28;20383;-80
2023/07/04 02:22:26;;;;;;;0.00;0.00;;;;;;;;;;5112798;28;20036;-80
2023/07/04 02:24:52;;;;;;;0.00;0.00;;;;;;;;;;5112815;28;20148;-81
2023/07/04 02:27:18;;;;;;;0.00;0.00;;;;;;;;;;5111748;28;20040;-80
2023/07/04 02:29:47;;;;;;;0.00;0.00;;;;;;;;;;5112688;28;20039;-80
2023/07/04 02:32:13;;;;;;;0.00;0.00;;;;;;;;;;5111022;28;20044;-80
2023/07/04 02:34:39;;;;;;;0.00;0.00;;;;;;;;;;5111648;28;20084;-79
2023/07/04 02:37:05;;;;;;;0.00;0.00;;;;;;;;;;5110998;28;20146;-80
2023/07/04 02:39:31;;;;;;;0.00;0.00;;;;;;;;;;5111054;28;20047;-80
2023/07/04 02:41:57;;;;;;;0.00;0.00;;;;;;;;;;5112232;28;20046;-80
2023/07/04 02:44:23;;;;;;;0.00;0.00;;;;;;;;;;5112499;28;20053;-80
2023/07/04 02:46:49;;;;;;;0.00;0.00;;;;;;;;;;5110936;28;20046;-79
2023/07/04 02:49:15;;;;;;;0.00;0.00;;;;;;;;;;5111272;28;20040;-80
2023/07/04 02:51:41;;;;;;;0.00;0.00;;;;;;;;;;5111167;28;20047;-80
2023/07/04 02:54:07;;;;;;;0.00;0.00;;;;;;;;;;5094275;28;20046;-80
2023/07/04 02:56:34;;;;;;;0.00;0.00;;;;;;;;;;5112389;28;20056;-80
2023/07/04 02:59:00;;;;;;;0.00;0.00;;;;;;;;;;5112138;28;20051;-79
2023/07/04 03:01:26;;;;;;;0.00;0.00;;;;;;;;;;5110862;28;20475;-80
2023/07/04 03:03:52;;;;;;;0.00;0.00;;;;;;;;;;5110844;28;20115;-80
2023/07/04 03:06:18;;;;;;;0.00;0.00;;;;;;;;;;5112125;28;20062;-80
2023/07/04 03:08:45;;;;;;;0.00;0.00;;;;;;;;;;5111057;28;20148;-80
2023/07/04 03:11:11;;;;;;;0.00;0.00;;;;;;;;;;5111107;28;20040;-80
2023/07/04 03:13:37;;;;;;;0.00;0.00;;;;;;;;;;5110671;28;20039;-80
2023/07/04 03:16:03;;;;;;;0.00;0.00;;;;;;;;;;5112411;28;20168;-79
2023/07/04 03:18:29;;;;;;;0.00;0.00;;;;;;;;;;5110621;28;20035;-80
2023/07/04 03:20:55;;;;;;;0.00;0.00;;;;;;;;;;5111033;28;20040;-80
2023/07/04 03:23:21;;;;;;;0.00;0.00;;;;;;;;;;5115664;28;20086;-80
2023/07/04 03:25:47;;;;;;;0.00;0.00;;;;;;;;;;5115712;28;20079;-80
2023/07/04 03:28:13;;;;;;;0.00;0.00;;;;;;;;;;5115475;27;20084;-80
2023/07/04 03:30:39;;;;;;;0.00;0.00;;;;;;;;;;5114564;28;20321;-80
2023/07/04 03:33:05;;;;;;;0.00;0.00;;;;;;;;;;5114138;28;20123;-79
2023/07/04 03:35:31;;;;;;;0.00;0.00;;;;;;;;;;5114447;28;20100;-79
2023/07/04 03:37:57;;;;;;;0.00;0.00;;;;;;;;;;5114292;28;20430;-80
2023/07/04 03:40:23;;;;;;;0.00;0.00;;;;;;;;;;5114344;28;20040;-80
2023/07/04 03:42:48;;;;;;;0.00;0.00;;;;;;;;;;5113838;28;20127;-80
2023/07/04 03:45:14;;;;;;;0.00;0.00;;;;;;;;;;5114074;28;20100;-80
2023/07/04 03:47:41;;;;;;;0.00;0.00;;;;;;;;;;5114084;28;20100;-82
2023/07/04 03:50:07;;;;;;;0.00;0.00;;;;;;;;;;5114099;28;20039;-80
2023/07/04 03:52:33;;;;;;;0.00;0.00;;;;;;;;;;5115367;28;20043;-80
2023/07/04 03:54:59;;;;;;;0.00;0.00;;;;;;;;;;5113939;28;20039;-80
2023/07/04 03:57:25;;;;;;;0.00;0.00;;;;;;;;;;5114635;28;20132;-80
2023/07/04 03:59:51;;;;;;;0.00;0.00;;;;;;;;;;5113875;28;20040;-80
2023/07/04 04:02:17;;;;;;;0.00;0.00;;;;;;;;;;5113686;28;20039;-80
2023/07/04 04:04:43;;;;;;;0.00;0.00;;;;;;;;;;5113423;28;20474;-80
2023/07/04 04:07:10;;;;;;;0.00;0.00;;;;;;;;;;5113645;28;20096;-80
2023/07/04 04:09:37;;;;;;;0.00;0.00;;;;;;;;;;5113637;28;20351;-80
2023/07/04 04:12:04;;;;;;;0.00;0.00;;;;;;;;;;5113587;28;20044;-80
2023/07/04 04:14:30;;;;;;;0.00;0.00;;;;;;;;;;5114666;28;20074;-80
2023/07/04 04:16:57;;;;;;;0.00;0.00;;;;;;;;;;5113716;28;20510;-80
2023/07/04 04:19:23;;;;;;;0.00;0.00;;;;;;;;;;5096314;28;20046;-80
2023/07/04 04:21:49;;;;;;;0.00;0.00;;;;;;;;;;5113580;28;20047;-80
2023/07/04 04:24:15;;;;;;;0.00;0.00;;;;;;;;;;5113000;28;20036;-80
2023/07/04 04:26:43;;;;;;;0.00;0.00;;;;;;;;;;5113442;28;20051;-79
2023/07/04 04:29:09;;;;;;;0.00;0.00;;;;;;;;;;5114447;28;20165;-80
2023/07/04 04:31:37;;;;;;;0.00;0.00;;;;;;;;;;5114285;28;20100;-80
2023/07/04 04:34:05;;;;;;;0.00;0.00;;;;;;;;;;5114233;28;20044;-80
2023/07/04 04:36:31;;;;;;;0.00;0.00;;;;;;;;;;5113172;28;20058;-80
2023/07/04 04:38:59;;;;;;;0.00;0.00;;;;;;;;;;5112655;28;20128;-80
2023/07/04 04:41:25;;;;;;;0.00;0.00;;;;;;;;;;5095913;28;20049;-80
2023/07/04 04:43:51;;;;;;;0.00;0.00;;;;;;;;;;5112990;28;20062;-80
2023/07/04 04:46:17;;;;;;;0.00;0.00;;;;;;;;;;5112871;28;20463;-80
2023/07/04 04:48:43;;;;;;;0.00;0.00;;;;;;;;;;5112936;28;20077;-80
2023/07/04 04:51:12;;;;;;;0.00;0.00;;;;;;;;;;5112755;28;20043;-79
2023/07/04 04:53:41;;;;;;;0.43;0.00;;;;;;;;;;5112420;28;20048;-80
2023/07/04 04:56:07;;;;;;;0.00;0.00;;;;;;;;;;5112723;28;20043;-80
2023/07/04 04:58:33;;;;;;;0.00;0.00;;;;;;;;;;5112278;28;20483;-80
2023/07/04 05:01:11;;;;;;;0.00;0.00;;;;;;;;;;5112553;28;20092;-80
2023/07/04 05:03:36;;;;;;;0.00;0.00;;;;;;;;;;5112484;28;20039;-80
2023/07/04 05:06:05;;;;;;;0.00;0.00;;;;;;;;;;5113602;28;20038;-80
2023/07/04 05:08:31;;;;;;;0.00;0.00;;;;;;;;;;5112469;28;20043;-80
2023/07/04 05:11:15;;;;;;;0.00;0.00;;;;;;;;;;5113686;28;20036;-80
2023/07/04 05:13:42;;;;;;;0.00;0.00;;;;;;;;;;5112380;28;20043;-80
2023/07/04 05:16:11;;;;;;;0.00;0.00;;;;;;;;;;5113973;28;20039;-80
2023/07/04 05:18:38;;;;;;;0.00;0.00;;;;;;;;;;5112073;28;20035;-80
2023/07/04 05:21:08;;;;;;;0.00;0.00;;;;;;;;;;5113705;28;20031;-80
2023/07/04 05:23:35;;;;;;;0.00;0.00;;;;;;;;;;5113466;28;20178;-80
2023/07/04 05:26:04;;;;;;;0.00;0.00;;;;;;;;;;5113569;28;20164;-79
2023/07/04 05:28:30;;;;;;;0.00;0.00;;;;;;;;;;5112110;28;20048;-80
2023/07/04 05:31:00;;;;;;;0.00;0.00;;;;;;;;;;5112230;28;20055;-81
2023/07/04 05:33:26;;;;;;;0.00;0.00;;;;;;;;;;5113326;28;20066;-80
2023/07/04 05:36:02;;;;;;;0.00;0.00;;;;;;;;;;5113498;28;20051;-80
2023/07/04 05:38:28;;;;;;;0.00;0.00;;;;;;;;;;5113107;28;20092;-80
2023/07/04 05:40:54;;;;;;;0.00;0.00;;;;;;;;;;5111952;28;20046;-80
2023/07/04 05:43:20;;;;;;;0.00;0.00;;;;;;;;;;5095272;28;20031;-80
2023/07/04 05:45:53;;;;;;;0.00;0.00;;;;;;;;;;5112434;28;20044;-80
2023/07/04 05:48:19;;;;;;;0.00;0.00;;;;;;;;;;5113349;28;20043;-80
2023/07/04 05:50:58;;;;;;;0.00;0.00;;;;;;;;;;5111901;28;20123;-80
2023/07/04 05:53:25;;;;;;;0.00;0.00;;;;;;;;;;5113178;28;20521;-80
2023/07/04 05:55:52;;;;;;;0.00;0.00;;;;;;;;;;5112078;28;20047;-80
2023/07/04 05:58:18;;;;;;;0.00;0.00;;;;;;;;;;5111684;28;20047;-80
2023/07/04 06:00:44;;;;;;;0.00;0.00;;;;;;;;;;5111756;28;20479;-80
2023/07/04 06:03:10;;;;;;;0.00;0.00;;;;;;;;;;5112174;28;20344;-80
2023/07/04 06:05:40;;;;;;;0.00;0.00;;;;;;;;;;5111677;28;20051;-80
2023/07/04 06:08:07;;;;;;;0.00;0.00;;;;;;;;;;5111968;28;20502;-80
2023/07/04 06:10:33;;;;;;;0.00;0.00;;;;;;;;;;5111373;28;20044;-80
2023/07/04 06:12:59;;;;;;;0.00;0.00;;;;;;;;;;5112298;28;20078;-80
2023/07/04 06:15:26;;;;;;;0.00;0.00;;;;;;;;;;5113410;28;20036;-80
2023/07/04 06:17:52;;;;;;;0.00;0.00;;;;;;;;;;5112431;28;20043;-80
2023/07/04 06:20:19;;;;;;;0.00;0.00;;;;;;;;;;5111594;28;20042;-81
2023/07/04 06:22:45;;;;;;;0.00;0.00;;;;;;;;;;5113055;28;20040;-81
2023/07/04 06:25:11;;;;;;;0.00;0.00;;;;;;;;;;5112672;28;20398;-82
2023/07/04 06:27:37;;;;;;;0.00;0.00;;;;;;;;;;5111699;28;20036;-82
2023/07/04 06:30:04;;;;;;;0.00;0.00;;;;;;;;;;5111397;28;20111;-82
2023/07/04 06:32:29;;;;;;;0.00;0.00;;;;;;;;;;5111492;28;20046;-82
2023/07/04 06:34:55;;;;;;;0.00;0.00;;;;;;;;;;5111213;28;20043;-82
2023/07/04 06:37:21;;;;;;;0.00;0.00;;;;;;;;;;5111250;28;20135;-82
2023/07/04 06:39:47;;;;;;;0.00;0.00;;;;;;;;;;5112421;28;20081;-82
2023/07/04 06:42:14;;;;;;;0.00;0.00;;;;;;;;;;5112605;28;20547;-82
2023/07/04 06:44:43;;;;;;;0.00;0.00;;;;;;;;;;5111039;28;20100;-83
2023/07/04 06:47:09;;;;;;;0.00;0.00;;;;;;;;;;5112649;28;20043;-82
2023/07/04 06:49:35;;;;;;;0.00;0.00;;;;;;;;;;5112410;28;20394;-84
2023/07/04 06:52:02;;;;;;;0.00;0.00;;;;;;;;;;5111712;28;20047;-83
2023/07/04 06:54:28;;;;;;;0.00;0.00;;;;;;;;;;5112417;28;20031;-84
2023/07/04 06:56:54;;;;;;;0.00;0.00;;;;;;;;;;5112940;28;20509;-83
2023/07/04 06:59:20;;;;;;;0.00;0.00;;;;;;;;;;5116197;28;20074;-84
2023/07/04 07:01:46;;;;;;;0.00;0.00;;;;;;;;;;5115198;28;20043;-82
2023/07/04 07:04:13;;;;;;;0.00;0.00;;;;;;;;;;5115285;28;20054;-82
2023/07/04 07:06:40;;;;;;;0.00;0.00;;;;;;;;;;5115085;28;20031;-82
2023/07/04 07:09:08;;;;;;;0.00;0.00;;;;;;;;;;5114978;28;20047;-82
2023/07/04 07:11:34;;;;;;;0.00;0.00;;;;;;;;;;5114586;28;20039;-83
2023/07/04 07:14:00;;;;;;;0.00;0.00;;;;;;;;;;5114768;28;20114;-83
2023/07/04 07:16:26;;;;;;;0.00;0.00;;;;;;;;;;5114729;28;20040;-82
2023/07/04 07:18:53;;;;;;;0.00;0.00;;;;;;;;;;5114664;28;20050;-82
2023/07/04 07:21:20;;;;;;;0.00;0.00;;;;;;;;;;5115566;28;20331;-82
2023/07/04 07:23:48;;;;;;;0.00;0.00;;;;;;;;;;5116042;28;20043;-82
2023/07/04 07:26:17;;;;;;;0.00;0.00;;;;;;;;;;5114569;28;20040;-82
2023/07/04 07:28:43;;;;;;;0.00;0.00;;;;;;;;;;5114477;28;20108;-82
2023/07/04 07:31:20;;;;;;;0.00;0.00;;;;;;;;;;5114266;28;20075;-83
2023/07/04 07:33:48;;;;;;;0.00;0.00;;;;;;;;;;5114681;28;20467;-82
2023/07/04 07:36:26;;;;;;;0.00;0.00;;;;;;;;;;5115463;28;20047;-82
2023/07/04 07:38:53;;;;;;;0.00;0.00;;;;;;;;;;5114499;28;20126;-82
2023/07/04 07:41:20;;;;;;;0.00;0.00;;;;;;;;;;5115411;28;20042;-83
2023/07/04 07:43:47;;;;;;;0.00;0.00;;;;;;;;;;5114323;28;20075;-88
2023/07/04 07:46:14;;;;;;;0.00;0.00;;;;;;;;;;5114586;28;20044;-83
2023/07/04 07:48:40;;;;;;;0.00;0.00;;;;;;;;;;5115416;27;20047;-82
2023/07/04 07:51:08;;;;;;;0.00;0.00;;;;;;;;;;5114016;28;20039;-82
2023/07/04 07:53:35;;;;;;;0.00;0.00;;;;;;;;;;5114213;28;20364;-82
2023/07/04 07:56:01;;;;;;;0.00;0.00;;;;;;;;;;5114691;28;20387;-82
2023/07/04 07:58:27;;;;;;;0.00;0.00;;;;;;;;;;5115167;28;20463;-82
2023/07/04 08:00:53;;;;;;;0.00;0.00;;;;;;;;;;5115272;28;20032;-82
2023/07/04 08:03:19;;;;;;;0.00;0.00;;;;;;;;;;5115067;28;20043;-82
2023/07/04 08:05:45;;;;;;;0.00;0.00;;;;;;;;;;5113819;28;20046;-82
2023/07/04 08:08:12;;;;;;;0.00;0.00;;;;;;;;;;5113284;28;20053;-82
2023/07/04 08:10:38;;;;;;;0.00;0.00;;;;;;;;;;5113515;28;20083;-82
2023/07/04 08:13:05;;;;;;;0.00;0.00;;;;;;;;;;5114839;28;20498;-82
2023/07/04 08:15:31;;;;;;;0.00;0.00;;;;;;;;;;5113475;28;20152;-83
2023/07/04 08:17:57;;;;;;;0.00;0.00;;;;;;;;;;5114784;28;20080;-82
2023/07/04 08:20:23;;;;;;;0.00;0.00;;;;;;;;;;5113612;28;20493;-88
2023/07/04 08:22:49;;;;;;;0.00;0.00;;;;;;;;;;5113436;28;20043;-80
2023/07/04 08:25:15;;;;;;;0.00;0.00;;;;;;;;;;5096093;28;20392;-80
2023/07/04 08:27:41;;;;;;;0.00;0.00;;;;;;;;;;5114564;28;20116;-84
2023/07/04 08:30:08;;;;;;;0.00;0.00;;;;;;;;;;5114531;28;20451;-81
2023/07/04 08:32:33;;;;;;;0.00;0.00;;;;;;;;;;5096149;28;20035;-80
2023/07/04 08:35:00;;;;;;;0.00;0.00;;;;;;;;;;5114653;28;20096;-81
2023/07/04 08:37:26;;;;;;;0.00;0.00;;;;;;;;;;5114553;28;20039;-81
2023/07/04 08:39:52;;;;;;;0.00;0.00;;;;;;;;;;5113215;28;20061;-80
2023/07/04 08:42:19;;;;;;;0.00;0.00;;;;;;;;;;5113006;28;20039;-80
2023/07/04 08:44:46;;;;;;;0.00;0.00;;;;;;;;;;5113017;28;20036;-80
2023/07/04 08:47:15;;;;;;;0.00;0.00;;;;;;;;;;5112693;28;20034;-80
2023/07/04 08:49:53;;;;;;;0.00;0.00;;;;;;;;;;5114099;28;20035;-81
2023/07/04 08:52:23;;;;;;;0.00;0.00;;;;;;;;;;5112652;28;20049;-81
2023/07/04 08:54:49;;;;;;;0.00;0.00;;;;;;;;;;5112899;28;20122;-81
2023/07/04 08:57:19;;;;;;;0.00;0.00;;;;;;;;;;5113527;27;20055;-80
2023/07/04 08:59:46;;;;;;;0.00;0.00;;;;;;;;;;5112438;28;20105;-80
2023/07/04 09:02:38;;;;;;;0.00;0.00;;;;;;;;;;5112397;28;20195;-80
2023/07/04 09:05:04;;;;;;;0.00;0.00;;;;;;;;;;5113961;28;20036;-80
2023/07/04 09:07:35;;;;;;;0.00;0.00;;;;;;;;;;5112678;28;20039;-81
2023/07/04 09:10:10;;;;;;;0.00;0.00;;;;;;;;;;5112991;28;20089;-81
2023/07/04 09:12:38;;;;;;;0.00;0.00;;;;;;;;;;5112201;28;20091;-81
2023/07/04 09:15:11;;;;;;;0.00;0.00;;;;;;;;;;5113811;28;20050;-80
2023/07/04 09:17:39;;;;;;;0.00;0.00;;;;;;;;;;5113464;28;20110;-82
2023/07/04 09:20:08;;;;;;;0.40;0.40;;;;;;;;;;5112572;28;20036;-81
2023/07/04 09:22:35;;;;;;;0.00;0.00;;;;;;;;;;5112191;28;20043;-80
2023/07/04 09:25:01;;;;;;;3.22;0.30;;;;;;;;;;5113678;28;20044;-81
2023/07/04 09:27:28;;;;;;;0.00;0.00;;;;;;;;;;5111921;28;20047;-81
2023/07/04 09:29:54;;;;;;;0.00;0.00;;;;;;;;;;5113615;28;20035;-81
2023/07/04 09:32:20;;;;;;;0.00;0.00;;;;;;;;;;5111996;28;20054;-81
2023/07/04 09:34:47;;;;;;;0.00;0.00;;;;;;;;;;5113392;28;20118;-81
2023/07/04 09:37:15;;;;;;;0.00;0.00;;;;;;;;;;5112053;28;20040;-80
2023/07/04 09:39:48;;;;;;;0.00;0.00;;;;;;;;;;5113270;28;20039;-81
2023/07/04 09:42:15;;;;;;;0.00;0.00;;;;;;;;;;5111662;28;20046;-81
2023/07/04 09:44:41;;;;;;;0.00;0.00;;;;;;;;;;5113319;28;20034;-81
2023/07/04 09:47:19;;;;;;;0.00;0.00;;;;;;;;;;5094657;28;20039;-81
2023/07/04 09:49:45;;;;;;;0.00;0.00;;;;;;;;;;5113205;28;20043;-81
2023/07/04 09:52:11;;;;;;;0.00;0.00;;;;;;;;;;5113006;28;20061;-81
2023/07/04 09:54:38;;;;;;;0.00;0.00;;;;;;;;;;5111981;28;20046;-81
2023/07/04 09:57:24;;;;;;;0.00;0.00;;;;;;;;;;5112764;28;20134;-81
2023/07/04 09:59:51;;;;;;;0.00;0.00;;;;;;;;;;5111749;28;20054;-81
2023/07/04 10:02:26;;;;;;;0.00;0.00;;;;;;;;;;5111713;28;20065;-81
2023/07/04 10:04:52;;;;;;;0.22;0.20;;;;;;;;;;5111787;28;20047;-81
2023/07/04 10:07:20;;;;;;;0.00;0.00;;;;;;;;;;5111446;28;20044;-81
2023/07/04 10:09:57;;;;;;;0.00;0.00;;;;;;;;;;5113350;28;20042;-83
2023/07/04 10:12:23;;;;;;;0.00;0.00;;;;;;;;;;5111323;28;20044;-81
2023/07/04 10:14:54;;;;;;;0.10;0.08;;;;;;;;;;5111586;28;20039;-82
2023/07/04 10:17:21;;;;;;;0.00;0.00;;;;;;;;;;5112706;28;20121;-82
2023/07/04 10:19:52;;;;;;;0.00;0.00;;;;;;;;;;5112705;28;20398;-81
2023/07/04 10:22:30;;;;;;;0.00;0.00;;;;;;;;;;5112911;28;20480;-81
2023/07/04 10:24:58;;;;;;;0.00;0.00;;;;;;;;;;5111530;28;20073;-81
2023/07/04 10:27:31;;;;;;;0.00;0.00;;;;;;;;;;5111261;28;20411;-82
2023/07/04 10:29:59;;;;;;;0.00;0.00;;;;;;;;;;5111737;28;20058;-81
2023/07/04 10:32:26;;;;;;;0.00;0.00;;;;;;;;;;5116789;28;20051;-81
2023/07/04 10:34:52;;;;;;;0.00;0.00;;;;;;;;;;5115961;28;20057;-82
2023/07/04 10:37:34;;;;;;;0.00;0.00;;;;;;;;;;5115411;28;20036;-82
2023/07/04 10:40:03;;;;;;;0.00;0.00;;;;;;;;;;5098717;28;20375;-81
2023/07/04 10:42:29;;;;;;;0.00;0.00;;;;;;;;;;5116594;27;20479;-81
2023/07/04 10:44:57;;;;;;;0.00;0.00;;;;;;;;;;5115567;28;20043;-81
2023/07/04 10:47:25;;;;;;;0.00;0.00;;;;;;;;;;5115186;28;20040;-81
2023/07/04 10:49:54;;;;;;;0.00;0.00;;;;;;;;;;5115559;28;20043;-81
2023/07/04 10:52:22;;;;;;;0.00;0.00;;;;;;;;;;5116681;28;20035;-82
2023/07/04 10:54:48;;;;;;;0.00;0.00;;;;;;;;;;5116668;27;20044;-85
2023/07/04 10:57:26;;;;;;;0.00;0.00;;;;;;;;;;5116186;28;20043;-84
2023/07/04 10:59:55;;;;;;;0.00;0.00;;;;;;;;;;5116392;28;20487;-87
2023/07/04 11:02:28;;;;;;;0.00;0.00;;;;;;;;;;5116281;28;20040;-82
2023/07/04 11:04:59;;;;;;;0.00;0.00;;;;;;;;;;5098473;28;20126;-82
2023/07/04 11:07:26;;;;;;;0.00;0.00;;;;;;;;;;5116764;28;20036;-82
2023/07/04 11:09:54;;;;;;;0.00;0.00;;;;;;;;;;5115460;28;20169;-82
2023/07/04 11:12:22;;;;;;;0.00;0.00;;;;;;;;;;5097844;28;20039;-82
2023/07/04 11:14:48;;;;;;;0.00;0.00;;;;;;;;;;5114691;28;20050;-81
2023/07/04 11:17:17;;;;;;;0.00;0.00;;;;;;;;;;5114830;28;20123;-82
2023/07/04 11:20:12;;;;;;;0.00;0.00;;;;;;;;;;5114544;28;20514;-81
2023/07/04 11:22:38;;;;;;;0.00;0.00;;;;;;;;;;5114690;28;20479;-82
2023/07/04 11:25:24;;;;;;;0.00;0.00;;;;;;;;;;5114503;28;20042;-82
2023/07/04 11:28:10;;;;;;;0.05;0.00;;;;;;;;;;5115527;28;20123;-81
2023/07/04 11:30:40;;;;;;;0.00;0.00;;;;;;;;;;5114537;28;20043;-81
2023/07/04 11:33:07;;;;;;;0.00;0.00;;;;;;;;;;5115405;28;20483;-81
2023/07/04 11:35:33;;;;;;;0.00;0.00;;;;;;;;;;5114393;28;20104;-82
2023/07/04 11:38:09;;;;;;;0.00;0.00;;;;;;;;;;5115358;28;20359;-81
2023/07/04 11:40:43;;;;;;;0.00;0.00;;;;;;;;;;5114566;28;20043;-81
2023/07/04 11:43:21;;;;;;;0.00;0.00;;;;;;;;;;5114445;28;20040;-81
2023/07/04 11:45:48;;;;;;;0.00;0.00;;;;;;;;;;5115691;28;20032;-81
2023/07/04 11:48:17;;;;;;;0.00;0.00;;;;;;;;;;5114055;28;20359;-81
2023/07/04 11:50:51;;;;;;;0.00;0.00;;;;;;;;;;5115660;28;20051;-81
2023/07/04 11:53:18;;;;;;;0.00;0.00;;;;;;;;;;5113986;28;20054;-81
2023/07/04 11:55:45;;;;;;;0.00;0.00;;;;;;;;;;5115406;28;20112;-81
2023/07/04 11:58:11;;;;;;;0.00;0.00;;;;;;;;;;5113431;28;20499;-85
2023/07/04 12:00:39;;;;;;;0.00;0.00;;;;;;;;;;5115239;28;20046;-81
2023/07/04 12:03:17;;;;;;;0.00;0.00;;;;;;;;;;5113773;28;20031;-81
2023/07/04 12:05:50;;;;;;;0.00;0.00;;;;;;;;;;5113831;28;20035;-81
2023/07/04 12:08:22;;;;;;;0.00;0.00;;;;;;;;;;5096726;28;20122;-81
2023/07/04 12:10:48;;;;;;;0.00;0.00;;;;;;;;;;5114147;28;20047;-81
2023/07/04 12:13:18;;;;;;;0.00;0.00;;;;;;;;;;5113313;28;20100;-80
2023/07/04 12:15:48;;;;;;;0.00;0.00;;;;;;;;;;5113806;28;20100;-81
2023/07/04 12:18:20;;;;;;;0.00;0.00;;;;;;;;;;5113506;28;20183;-81
2023/07/04 12:20:46;;;;;;;0.00;0.00;;;;;;;;;;5114939;28;20096;-81
2023/07/04 12:23:12;;;;;;;0.00;0.00;;;;;;;;;;5114573;28;20027;-81
2023/07/04 12:25:41;;;;;;;0.00;0.00;;;;;;;;;;5096737;28;20040;-81
2023/07/04 12:28:09;;;;;;;0.10;0.10;;;;;;;;;;5114670;28;20100;-81
2023/07/04 12:30:38;;;;;;;0.00;0.00;;;;;;;;;;5113225;28;20039;-81
2023/07/04 12:33:04;;;;;;;0.00;0.00;;;;;;;;;;5113379;28;20553;-81
2023/07/04 12:35:31;;;;;;;0.00;0.00;;;;;;;;;;5114601;28;20047;-81
2023/07/04 12:37:58;;;;;;;0.00;0.00;;;;;;;;;;5096065;28;20044;-82
2023/07/04 12:40:28;;;;;;;0.00;0.00;;;;;;;;;;5113095;28;20054;-82
2023/07/04 12:42:55;;;;;;;0.00;0.00;;;;;;;;;;5113066;28;20043;-82
2023/07/04 12:45:22;;;;;;;0.00;0.00;;;;;;;;;;5114569;27;20032;-81
2023/07/04 12:47:50;;;;;;;0.00;0.00;;;;;;;;;;5112958;28;20043;-81
2023/07/04 12:50:17;;;;;;;0.00;0.00;;;;;;;;;;5112842;28;20047;-81
2023/07/04 12:52:43;;;;;;;0.00;0.00;;;;;;;;;;5113908;28;20039;-81
2023/07/04 12:55:30;;;;;;;0.00;0.00;;;;;;;;;;5112683;28;20054;-81
2023/07/04 12:57:57;;;;;;;0.00;0.00;;;;;;;;;;5113726;28;20076;-81
2023/07/04 13:00:26;;;;;;;0.00;0.00;;;;;;;;;;5112638;28;20110;-81
2023/07/04 13:02:52;;;;;;;0.00;0.00;;;;;;;;;;5112637;28;20391;-82
2023/07/04 13:05:18;;;;;;;0.00;0.00;;;;;;;;;;5113798;28;20412;-81
2023/07/04 13:07:46;;;;;;;0.00;0.00;;;;;;;;;;5113754;28;20540;-81
2023/07/04 13:10:19;;;;;;;0.00;0.00;;;;;;;;;;5113842;28;20071;-81
2023/07/04 13:12:45;;;;;;;0.00;0.00;;;;;;;;;;5114078;28;20089;-81
2023/07/04 13:15:18;;;;;;;0.00;0.00;;;;;;;;;;5113668;28;20172;-81
2023/07/04 13:17:54;;;;;;;0.00;0.00;;;;;;;;;;5113701;28;20391;-81
2023/07/04 13:20:21;;;;;;;0.00;0.00;;;;;;;;;;5113775;28;20111;-81
2023/07/04 13:22:47;;;;;;;0.00;0.00;;;;;;;;;;5113589;28;20102;-81
2023/07/04 13:25:22;;;;;;;0.00;0.00;;;;;;;;;;5113531;28;20498;-81
2023/07/04 13:27:48;;;;;;;0.00;0.00;;;;;;;;;;5113716;28;20063;-81
2023/07/04 13:30:26;;;;;;;0.00;0.00;;;;;;;;;;5112921;28;20035;-81
2023/07/04 13:32:52;;;;;;;0.00;0.00;;;;;;;;;;5113706;27;20035;-82
2023/07/04 13:35:23;;;;;;;0.00;0.00;;;;;;;;;;5113202;28;20490;-81
2023/07/04 13:37:49;;;;;;;0.00;0.00;;;;;;;;;;5113735;28;20114;-81
2023/07/04 13:40:15;;;;;;;0.00;0.00;;;;;;;;;;5111831;28;20597;-81
2023/07/04 13:42:41;;;;;;;0.00;0.00;;;;;;;;;;5113306;28;20118;-81
2023/07/04 13:45:08;;;;;;;0.00;0.00;;;;;;;;;;5113547;28;20032;-81
2023/07/04 13:47:34;;;;;;;0.00;0.00;;;;;;;;;;5111895;28;20059;-81
2023/07/04 13:50:02;;;;;;;0.00;0.00;;;;;;;;;;5111765;28;20036;-81
2023/07/04 13:52:31;;;;;;;0.00;0.00;;;;;;;;;;5112039;28;20036;-81
2023/07/04 13:54:57;;;;;;;0.00;0.00;;;;;;;;;;5111601;28;20036;-82
2023/07/04 13:57:24;;;;;;;0.00;0.00;;;;;;;;;;5111853;28;20078;-81
2023/07/04 13:59:50;;;;;;;0.00;0.00;;;;;;;;;;5112734;28;20050;-81
2023/07/04 14:02:17;;;;;;;0.00;0.00;;;;;;;;;;5111642;28;20032;-81
2023/07/04 14:04:43;;;;;;;0.00;0.00;;;;;;;;;;5106898;28;20123;-81
2023/07/04 14:07:09;;;;;;;0.00;0.00;;;;;;;;;;5111393;28;20115;-81
2023/07/04 14:09:35;;;;;;;0.00;0.00;;;;;;;;;;5112886;28;20060;-81
2023/07/04 14:12:01;;;;;;;0.00;0.00;;;;;;;;;;5110607;28;20040;-82
2023/07/04 14:14:27;;;;;;;0.00;0.00;;;;;;;;;;5112561;28;20050;-81
2023/07/04 14:16:54;;;;;;;0.00;0.00;;;;;;;;;;5111556;28;20102;-81
2023/07/04 14:19:20;;;;;;;0.00;0.00;;;;;;;;;;5112492;28;20079;-81
2023/07/04 14:21:47;;;;;;;0.00;0.00;;;;;;;;;;5112934;28;20164;-81
2023/07/04 14:24:13;;;;;;;0.20;0.20;;;;;;;;;;5111292;28;20096;-81
2023/07/04 14:26:39;;;;;;;0.00;0.00;;;;;;;;;;5112843;28;20122;-80
2023/07/04 14:29:04;;;;;;;0.00;0.00;;;;;;;;;;5112579;28;20091;-81
2023/07/04 14:31:31;;;;;;;0.00;0.00;;;;;;;;;;5112479;28;20050;-81
2023/07/04 14:33:57;;;;;;;0.00;0.00;;;;;;;;;;5112563;28;20065;-81
2023/07/04 14:36:24;;;;;;;0.00;0.00;;;;;;;;;;5112911;28;20115;-81
2023/07/04 14:38:50;;;;;;;0.00;0.00;;;;;;;;;;5112218;28;20104;-81
2023/07/04 14:41:16;;;;;;;0.00;0.00;;;;;;;;;;5112387;28;20040;-81
2023/07/04 14:43:42;;;;;;;0.00;0.00;;;;;;;;;;5111159;28;20031;-81
2023/07/04 14:46:09;;;;;;;0.00;0.00;;;;;;;;;;5112233;28;20532;-80
2023/07/04 14:48:35;;;;;;;1.20;0.00;;;;;;;;;;5094191;28;20071;-81